createdAt,value
2022-10-11T05:41:01.352Z,11.70
2022-10-11T05:44:08.807Z,10.48
2022-10-11T05:47:15.226Z,9.88
2022-10-11T05:50:23.391Z,9.68
2022-10-11T05:53:29.442Z,10.47
2022-10-11T05:56:32.786Z,9.80
2022-10-11T05:59:36.221Z,9.63
2022-10-11T06:02:39.487Z,9.95
2022-10-11T06:05:42.734Z,10.20
2022-10-11T06:08:48.015Z,10.60
2022-10-11T06:11:51.444Z,10.37
2022-10-11T06:14:54.957Z,10.35
2022-10-11T06:17:59.367Z,9.80
2022-10-11T06:21:03.239Z,10.70
2022-10-11T06:24:07.111Z,10.00
2022-10-11T06:27:10.921Z,9.43
2022-10-11T06:30:14.955Z,9.65
2022-10-11T06:33:18.750Z,10.80
2022-10-11T06:36:22.535Z,10.98
2022-10-11T06:39:26.027Z,9.90
2022-10-11T06:42:29.648Z,10.30
2022-10-11T06:45:33.157Z,10.00
2022-10-11T06:48:39.976Z,9.90
2022-10-11T06:51:43.546Z,10.02
2022-10-11T06:54:46.786Z,10.60
2022-10-11T06:57:50.250Z,9.33
2022-10-11T07:00:53.954Z,8.95
2022-10-11T07:03:59.982Z,9.95
2022-10-11T07:07:03.637Z,9.57
2022-10-11T07:10:07.594Z,8.73
2022-10-11T07:13:16.255Z,9.40
2022-10-11T07:16:21.270Z,10.07
2022-10-11T07:19:24.640Z,9.23
2022-10-11T07:22:28.189Z,9.23
2022-10-11T07:25:31.492Z,9.93
2022-10-11T07:28:36.026Z,9.10
2022-10-11T07:31:42.149Z,8.98
2022-10-11T07:34:45.480Z,8.55
2022-10-11T07:37:48.708Z,9.18
2022-10-11T07:40:52.049Z,8.47
2022-10-11T07:43:55.747Z,8.67
2022-10-11T07:46:59.027Z,9.60
2022-10-11T07:50:02.263Z,8.55
2022-10-11T07:53:05.616Z,8.75
2022-10-11T07:56:10.497Z,8.70
2022-10-11T07:59:13.726Z,8.27
2022-10-11T08:02:16.989Z,8.50
2022-10-11T08:05:20.899Z,8.73
2022-10-11T08:08:24.217Z,8.73
2022-10-11T08:11:30.846Z,9.07
2022-10-11T08:14:34.255Z,9.47
2022-10-11T08:17:37.525Z,9.50
2022-10-11T08:20:40.996Z,9.10
2022-10-11T08:23:44.839Z,9.10
2022-10-11T08:26:48.571Z,9.07
2022-10-11T08:29:51.990Z,9.30
2022-10-11T08:32:55.593Z,8.77
2022-10-11T08:35:59.115Z,9.60
2022-10-11T08:39:02.585Z,9.30
2022-10-11T08:42:17.854Z,9.07
2022-10-11T08:45:44.330Z,9.00
2022-10-11T08:48:50.537Z,10.05
2022-10-11T08:52:02.710Z,17.48
2022-10-11T08:55:16.421Z,19.52
2022-10-11T08:58:25.232Z,13.37
2022-10-11T09:01:31.573Z,9.83
2022-10-11T09:04:35.515Z,8.95
2022-10-11T09:08:03.475Z,10.30
2022-10-11T09:11:10.892Z,10.68
2022-10-11T09:14:31.884Z,10.97
2022-10-11T09:18:12.555Z,14.63
2022-10-11T09:21:52.142Z,15.18
2022-10-11T09:25:25.866Z,13.13
2022-10-11T09:29:09.251Z,13.63
2022-10-11T09:32:16.528Z,9.90
2022-10-11T09:35:22.791Z,15.87
2022-10-11T09:38:32.032Z,13.55
2022-10-11T09:42:01.819Z,18.00
2022-10-11T09:45:16.805Z,16.20
2022-10-11T09:48:31.758Z,14.53
2022-10-11T09:51:35.454Z,10.37
2022-10-11T09:54:50.381Z,9.98
2022-10-11T09:57:55.862Z,10.15
2022-10-11T10:01:07.986Z,10.57
2022-10-11T10:04:14.612Z,10.33
2022-10-11T10:07:17.973Z,9.03
2022-10-11T10:10:39.619Z,9.80
2022-10-11T10:13:46.360Z,9.77
2022-10-11T10:16:57.784Z,9.77
2022-10-11T10:20:01.573Z,10.83
2022-10-11T10:23:26.409Z,9.43
2022-10-11T10:26:31.688Z,9.63
2022-10-11T10:29:35.998Z,10.35
2022-10-11T10:32:52.330Z,10.10
2022-10-11T10:35:58.700Z,10.23
2022-10-11T10:39:24.219Z,10.07
2022-10-11T10:42:27.885Z,10.25
2022-10-11T10:45:50.068Z,10.05
2022-10-11T10:53:32.520Z,9.40
2022-10-11T10:56:53.585Z,9.57
2022-10-11T11:00:04.524Z,10.02
2022-10-11T11:03:14.908Z,9.60
2022-10-11T11:06:45.205Z,9.90
2022-10-11T11:10:03.165Z,9.10
2022-10-11T11:13:35.352Z,10.33
2022-10-11T11:16:59.829Z,10.25
2022-10-11T11:20:26.816Z,9.63
2022-10-11T11:23:50.325Z,9.93
2022-10-11T11:27:04.715Z,8.87
2022-10-11T11:30:36.721Z,9.90
2022-10-11T11:34:18.980Z,9.57
2022-10-11T11:37:38.836Z,9.77
2022-10-11T11:41:06.371Z,9.32
2022-10-11T11:44:28.288Z,9.20
2022-10-11T11:47:37.827Z,9.03
2022-10-11T11:50:45.144Z,9.52
2022-10-11T11:53:56.868Z,9.23
2022-10-11T11:57:09.098Z,9.80
2022-10-11T12:00:18.534Z,9.83
2022-10-11T12:03:41.431Z,10.20
2022-10-11T12:07:15.792Z,9.25
2022-10-11T12:10:48.765Z,9.20
2022-10-11T12:13:54.004Z,9.73
2022-10-11T12:17:11.029Z,10.00
2022-10-11T12:20:37.990Z,9.10
2022-10-11T12:23:45.445Z,9.40
2022-10-11T12:26:50.072Z,8.73
2022-10-11T12:29:53.462Z,9.27
2022-10-11T12:33:18.617Z,9.33
2022-10-11T12:36:40.815Z,8.77
2022-10-11T12:40:00.849Z,16.00
2022-10-11T12:43:27.019Z,14.45
2022-10-11T12:46:31.259Z,9.60
2022-10-11T12:50:06.156Z,9.53
2022-10-11T12:53:26.857Z,8.90
2022-10-11T12:57:09.651Z,9.15
2022-10-11T13:00:20.760Z,9.55
2022-10-11T13:03:47.467Z,9.70
2022-10-11T13:06:54.935Z,9.67
2022-10-11T13:09:58.696Z,10.67
2022-10-11T13:13:04.581Z,9.88
2022-10-11T13:16:20.058Z,10.23
2022-10-11T13:19:24.176Z,10.75
2022-10-11T13:22:28.510Z,10.10
2022-10-11T13:25:37.807Z,9.60
2022-10-11T13:28:41.751Z,10.50
2022-10-11T13:31:49.318Z,11.68
2022-10-11T13:34:58.628Z,12.73
2022-10-11T13:38:02.878Z,9.77
2022-10-11T13:41:09.361Z,11.03
2022-10-11T13:44:12.683Z,9.93
2022-10-11T13:47:18.741Z,10.50
2022-10-11T13:50:34.390Z,9.27
2022-10-11T13:53:37.637Z,10.37
2022-10-11T13:56:50.920Z,9.50
2022-10-11T13:59:54.430Z,10.00
2022-10-11T14:03:05.892Z,11.85
2022-10-11T14:06:09.682Z,9.77
2022-10-11T14:09:23.630Z,10.40
2022-10-11T14:12:30.598Z,9.67
2022-10-11T14:15:38.241Z,9.43
2022-10-11T14:18:45.077Z,9.52
2022-10-11T14:21:51.504Z,9.63
2022-10-11T14:24:54.750Z,9.63
2022-10-11T14:27:58.406Z,9.47
2022-10-11T14:31:01.747Z,9.88
2022-10-11T14:34:05.982Z,8.82
2022-10-11T14:37:12.555Z,9.77
2022-10-11T14:40:25.315Z,10.10
2022-10-11T14:43:28.551Z,9.27
2022-10-11T14:46:32.118Z,9.00
2022-10-11T14:49:37.446Z,9.75
2022-10-11T14:52:41.894Z,12.02
2022-10-11T14:55:45.385Z,10.07
2022-10-11T14:58:49.004Z,10.73
2022-10-11T15:01:54.096Z,14.93
2022-10-11T15:04:57.388Z,20.35
2022-10-11T15:08:01.061Z,22.80
2022-10-11T15:11:04.942Z,11.60
2022-10-11T15:14:08.216Z,10.93
2022-10-11T15:17:12.596Z,10.65
2022-10-11T15:20:41.314Z,9.80
2022-10-11T15:23:44.520Z,10.85
2022-10-11T15:26:48.394Z,11.33
2022-10-11T15:29:51.651Z,12.67
2022-10-11T15:32:55.182Z,16.30
2022-10-11T15:35:58.368Z,18.75
2022-10-11T15:39:01.808Z,17.52
2022-10-11T15:42:05.293Z,15.40
2022-10-11T15:45:09.095Z,12.07
2022-10-11T15:48:19.006Z,11.48
2022-10-11T15:51:22.254Z,11.68
2022-10-11T15:54:25.755Z,12.15
2022-10-11T15:57:28.999Z,11.23
2022-10-11T16:00:32.561Z,11.20
2022-10-11T16:03:37.070Z,12.18
2022-10-11T16:06:41.157Z,12.70
2022-10-11T16:09:44.581Z,12.43
2022-10-11T16:12:48.727Z,12.30
2022-10-11T16:15:51.967Z,14.20
2022-10-11T16:18:55.355Z,14.30
2022-10-11T16:21:58.638Z,14.68
2022-10-11T16:25:02.682Z,22.38
2022-10-11T16:28:08.114Z,23.23
2022-10-11T16:31:20.928Z,23.20
2022-10-11T16:34:24.263Z,23.67
2022-10-11T16:37:27.566Z,21.23
2022-10-11T16:40:30.821Z,21.00
2022-10-11T16:43:34.020Z,19.70
2022-10-11T16:46:37.229Z,17.97
2022-10-11T16:49:40.459Z,17.67
2022-10-11T16:52:43.707Z,19.30
2022-10-11T16:55:46.968Z,20.77
2022-10-11T16:58:54.167Z,22.40
2022-10-11T17:01:58.022Z,26.07
2022-10-11T17:05:01.441Z,28.42
2022-10-11T17:08:04.864Z,24.52
2022-10-11T17:11:08.243Z,24.05
2022-10-11T17:14:13.276Z,24.00
2022-10-11T17:17:17.636Z,24.97
2022-10-11T17:20:20.881Z,28.33
2022-10-11T17:23:24.182Z,26.38
2022-10-11T17:26:28.241Z,22.35
2022-10-11T17:29:32.124Z,21.03
2022-10-11T17:32:35.531Z,19.90
2022-10-11T17:35:38.751Z,20.10
2022-10-11T17:38:42.064Z,18.60
2022-10-11T17:41:46.364Z,17.55
2022-10-11T17:44:49.631Z,18.47
2022-10-11T17:47:53.168Z,17.53
2022-10-11T17:50:56.536Z,17.08
2022-10-11T17:53:59.765Z,17.58
2022-10-11T17:57:03.180Z,19.00
2022-10-11T18:00:08.271Z,20.07
2022-10-11T18:03:11.842Z,21.10
2022-10-11T18:06:15.015Z,21.25
2022-10-11T18:09:24.703Z,21.63
2022-10-11T18:12:28.136Z,21.98
2022-10-11T18:15:32.794Z,20.33
2022-10-11T18:18:37.105Z,20.17
2022-10-11T18:21:41.148Z,20.40
2022-10-11T18:24:44.373Z,17.70
2022-10-11T18:27:47.590Z,16.33
2022-10-11T18:30:52.049Z,16.23
2022-10-11T18:33:55.360Z,16.53
2022-10-11T18:36:58.663Z,16.35
2022-10-11T18:40:01.982Z,15.60
2022-10-11T18:43:06.031Z,15.98
2022-10-11T18:46:10.956Z,14.70
2022-10-11T18:49:14.704Z,14.13
2022-10-11T18:52:18.868Z,13.55
2022-10-11T18:55:22.248Z,14.05
2022-10-11T18:58:25.519Z,13.93
2022-10-11T19:01:34.904Z,13.60
2022-10-11T19:04:39.693Z,13.60
2022-10-11T19:07:43.200Z,13.02
2022-10-11T19:10:46.770Z,12.93
2022-10-11T19:13:56.690Z,12.30
2022-10-11T19:16:59.965Z,13.23
2022-10-11T19:20:03.370Z,13.10
2022-10-11T19:23:06.839Z,12.65
2022-10-11T19:26:15.585Z,12.93
2022-10-11T19:29:20.600Z,12.57
2022-10-11T19:32:23.905Z,12.37
2022-10-11T19:35:27.281Z,13.33
2022-10-11T19:38:33.077Z,12.43
2022-10-11T19:41:36.425Z,13.18
2022-10-11T19:44:39.910Z,13.00
2022-10-11T19:47:43.146Z,13.53
2022-10-11T19:50:47.291Z,13.17
2022-10-11T19:53:57.038Z,12.60
2022-10-11T19:57:00.323Z,13.70
2022-10-11T20:00:05.062Z,12.55
2022-10-11T20:03:08.229Z,12.40
2022-10-11T20:06:12.047Z,11.90
2022-10-11T20:09:29.100Z,12.00
2022-10-11T20:12:34.038Z,11.95
2022-10-11T20:15:38.467Z,11.70
2022-10-11T20:18:42.801Z,12.27
2022-10-11T20:21:46.067Z,11.90
2022-10-11T20:24:49.275Z,11.18
2022-10-11T20:27:52.591Z,11.30
2022-10-11T20:30:56.166Z,11.85
2022-10-11T20:34:02.220Z,11.40
2022-10-11T20:37:05.436Z,11.03
2022-10-11T20:40:09.344Z,11.18
2022-10-11T20:43:14.239Z,11.02
2022-10-11T20:46:26.821Z,11.43
2022-10-11T20:49:29.998Z,10.97
2022-10-11T20:52:33.584Z,10.57
2022-10-11T20:55:36.972Z,11.30
2022-10-11T20:58:41.303Z,12.05
2022-10-11T21:01:44.664Z,11.85
2022-10-11T21:04:47.955Z,11.17
2022-10-11T21:07:53.141Z,11.60
2022-10-11T21:10:56.542Z,11.75
2022-10-11T21:14:03.210Z,12.10
2022-10-11T21:17:06.458Z,12.05
2022-10-11T21:20:10.166Z,11.57
2022-10-11T21:23:14.430Z,11.87
2022-10-11T21:26:20.768Z,12.25
2022-10-11T21:29:24.028Z,11.48
2022-10-11T21:32:27.287Z,11.88
2022-10-11T21:35:31.604Z,11.63
2022-10-11T21:38:35.804Z,11.43
2022-10-11T21:41:41.961Z,11.27
2022-10-11T21:44:45.305Z,11.88
2022-10-11T21:47:48.580Z,11.82
2022-10-11T21:50:55.422Z,13.10
2022-10-11T21:54:02.971Z,12.23
2022-10-11T21:57:06.372Z,12.48
2022-10-11T22:00:10.416Z,13.27
2022-10-11T22:03:16.589Z,13.55
2022-10-11T22:06:20.197Z,13.50
2022-10-11T22:09:23.522Z,12.90
2022-10-11T22:12:26.736Z,13.73
2022-10-11T22:15:32.932Z,13.38
2022-10-11T22:18:38.058Z,14.07
2022-10-11T22:21:44.864Z,12.23
2022-10-11T22:24:48.486Z,11.87
2022-10-11T22:27:51.680Z,10.90
2022-10-11T22:30:54.928Z,10.82
2022-10-11T22:34:00.205Z,11.65
2022-10-11T22:37:03.410Z,11.60
2022-10-11T22:40:07.226Z,10.30
2022-10-11T22:43:10.554Z,10.52
2022-10-11T22:46:13.824Z,10.82
2022-10-11T22:49:17.210Z,10.35
2022-10-11T22:52:20.448Z,11.57
2022-10-11T22:55:23.721Z,11.07
2022-10-11T22:58:27.393Z,10.63
2022-10-11T23:01:30.591Z,10.70
2022-10-11T23:04:33.893Z,10.73
2022-10-11T23:07:37.381Z,11.00
2022-10-11T23:10:41.144Z,11.27
2022-10-11T23:13:44.595Z,10.68
2022-10-11T23:16:50.257Z,10.40
2022-10-11T23:19:53.442Z,11.60
2022-10-11T23:22:56.632Z,11.00
2022-10-11T23:26:14.192Z,11.07
2022-10-11T23:29:17.731Z,11.90
2022-10-11T23:32:21.362Z,11.43
2022-10-11T23:35:24.690Z,11.63
2022-10-11T23:38:28.288Z,12.33
2022-10-11T23:41:31.844Z,12.10
2022-10-11T23:44:35.062Z,11.98
2022-10-11T23:47:38.298Z,12.10
2022-10-11T23:50:42.561Z,12.68
2022-10-11T23:53:45.789Z,13.20
2022-10-11T23:56:49.049Z,12.87
2022-10-11T23:59:52.297Z,12.52
